Time;durP1;ratioP1;P1;durP2;ratioP2;P2;SDS_P1;SDS_P2;PMS_P1;PMS_P2;Temp;Humidity;BMP_temperature;BMP_pressure;BME280_temperature;BME280_humidity;BME280_pressure;Samples;Min_cycle;Max_cycle;Signal;HPM_P1;HPM_P2
2023/10/04 00:01:42;;;;;;;3.83;1.05;;;13.90;99.90;;;;;;5001216;28;20214;-75
2023/10/04 00:04:08;;;;;;;5.85;1.25;;;13.90;99.90;;;;;;4994658;28;20046;-75
2023/10/04 00:06:34;;;;;;;2.15;1.02;;;13.90;99.90;;;;;;4969933;28;20049;-75
2023/10/04 00:09:00;;;;;;;4.22;1.15;;;13.90;99.90;;;;;;4991675;28;20146;-75
2023/10/04 00:11:28;;;;;;;6.45;1.08;;;13.90;99.90;;;;;;4990226;28;20583;-75
2023/10/04 00:13:55;;;;;;;5.93;1.48;;;13.90;99.90;;;;;;4999221;28;20054;-74
2023/10/04 00:16:21;;;;;;;3.90;0.93;;;13.80;99.90;;;;;;4983754;28;20042;-75
2023/10/04 00:18:47;;;;;;;1.77;0.95;;;13.80;99.90;;;;;;4992865;28;20046;-75
2023/10/04 00:21:12;;;;;;;3.45;0.80;;;13.80;99.90;;;;;;4986561;28;20495;-75
2023/10/04 00:23:38;;;;;;;2.53;1.58;;;13.80;99.90;;;;;;5002111;28;20081;-75
2023/10/04 00:26:07;;;;;;;1.75;0.98;;;13.80;99.90;;;;;;4980015;28;20038;-75
2023/10/04 00:28:33;;;;;;;6.00;1.13;;;13.80;99.90;;;;;;4982363;28;20049;-75
2023/10/04 00:30:59;;;;;;;2.83;1.08;;;13.80;99.90;;;;;;4982893;28;20042;-75
2023/10/04 00:33:26;;;;;;;6.40;1.10;;;13.80;99.90;;;;;;4981560;28;20061;-75
2023/10/04 00:35:52;;;;;;;4.05;1.13;;;13.80;99.90;;;;;;4980661;28;20046;-75
2023/10/04 00:38:19;;;;;;;9.07;1.35;;;13.80;99.90;;;;;;4981552;28;20043;-75
2023/10/04 00:40:47;;;;;;;5.38;1.70;;;13.80;99.90;;;;;;4993038;28;20116;-75
2023/10/04 00:43:14;;;;;;;8.30;1.65;;;13.80;99.90;;;;;;4988499;28;20042;-75
2023/10/04 00:45:44;;;;;;;4.55;0.80;;;13.80;99.90;;;;;;4993491;28;20046;-75
2023/10/04 00:48:15;;;;;;;5.18;2.00;;;13.80;99.90;;;;;;5001443;28;20393;-75
2023/10/04 00:50:41;;;;;;;1.40;0.88;;;13.80;99.90;;;;;;4983026;28;20057;-75
2023/10/04 00:53:09;;;;;;;3.53;0.93;;;13.80;99.90;;;;;;5002905;28;20038;-75
2023/10/04 00:55:43;;;;;;;2.15;0.63;;;13.80;99.90;;;;;;5001173;28;20042;-75
2023/10/04 00:58:11;;;;;;;3.97;0.88;;;13.80;99.90;;;;;;5000635;28;20528;-75
2023/10/04 01:00:45;;;;;;;6.65;1.35;;;13.80;99.90;;;;;;4998750;28;20046;-75
2023/10/04 01:03:11;;;;;;;3.83;1.05;;;13.80;99.90;;;;;;4986684;28;20049;-75
2023/10/04 01:05:47;;;;;;;2.95;0.98;;;13.80;99.90;;;;;;5001359;28;20041;-75
2023/10/04 01:08:21;;;;;;;4.13;0.93;;;13.70;99.90;;;;;;4984438;28;20044;-75
2023/10/04 01:10:50;;;;;;;4.07;1.38;;;13.70;99.90;;;;;;4986361;28;20048;-75
2023/10/04 01:13:22;;;;;;;3.28;0.88;;;13.80;99.90;;;;;;4980429;28;20155;-75
2023/10/04 01:15:53;;;;;;;;;;;13.80;99.90;;;;;;5001098;28;20129;-75
2023/10/04 01:18:19;;;;;;;3.85;1.40;;;13.70;99.90;;;;;;4985279;28;20431;-75
2023/10/04 01:20:46;;;;;;;5.82;1.50;;;13.70;99.90;;;;;;4994466;28;20053;-75
2023/10/04 01:23:11;;;;;;;0.77;0.68;;;13.70;99.90;;;;;;4999536;28;20471;-75
2023/10/04 01:25:39;;;;;;;1.33;1.20;;;13.70;99.90;;;;;;5000039;28;20218;-75
2023/10/04 01:28:11;;;;;;;4.50;1.20;;;13.70;99.90;;;;;;4998733;28;20073;-75
2023/10/04 01:30:37;;;;;;;9.80;1.25;;;13.70;99.90;;;;;;4983048;28;20054;-75
2023/10/04 01:33:03;;;;;;;2.88;1.25;;;13.70;99.90;;;;;;4979894;28;20049;-75
2023/10/04 01:35:29;;;;;;;5.97;1.08;;;13.70;99.90;;;;;;4979269;28;20053;-75
2023/10/04 01:37:55;;;;;;;5.20;1.13;;;13.60;99.90;;;;;;4984361;28;20042;-75
2023/10/04 01:40:31;;;;;;;4.20;0.82;;;13.60;99.90;;;;;;4993522;28;20041;-75
2023/10/04 01:42:57;;;;;;;2.45;0.80;;;13.60;99.90;;;;;;4992781;28;20480;-75
2023/10/04 01:45:23;;;;;;;5.75;1.05;;;13.60;99.90;;;;;;4984169;28;20088;-75
2023/10/04 01:47:49;;;;;;;9.25;0.93;;;13.50;99.90;;;;;;4981813;28;20088;-75
2023/10/04 01:50:15;;;;;;;3.55;1.00;;;13.50;99.90;;;;;;4980605;28;20068;-75
2023/10/04 01:52:48;;;;;;;5.25;0.93;;;13.50;99.90;;;;;;4981790;28;20125;-75
2023/10/04 01:55:16;;;;;;;8.85;1.40;;;13.50;99.90;;;;;;4979966;28;20046;-75
2023/10/04 01:57:43;;;;;;;5.75;1.02;;;13.50;99.90;;;;;;4981719;28;20073;-75
2023/10/04 02:00:10;;;;;;;3.65;1.30;;;13.50;99.90;;;;;;4980017;28;20452;-75
2023/10/04 02:02:39;;;;;;;10.80;1.48;;;13.50;99.90;;;;;;4979964;28;20072;-75
2023/10/04 02:05:09;;;;;;;3.47;1.13;;;13.50;99.90;;;;;;5014256;28;20133;-75
2023/10/04 02:07:38;;;;;;;4.57;0.82;;;13.40;99.90;;;;;;4991663;28;20046;-75
2023/10/04 02:10:17;;;;;;;6.35;2.50;;;13.40;99.90;;;;;;4995978;28;20034;-74
2023/10/04 02:12:43;;;;;;;1.55;0.70;;;13.40;99.90;;;;;;4983211;28;20081;-75
2023/10/04 02:15:14;;;;;;;6.68;0.73;;;13.40;99.90;;;;;;4984116;28;20146;-75
2023/10/04 02:17:43;;;;;;;2.28;0.77;;;13.40;99.90;;;;;;4997940;28;20819;-76
2023/10/04 02:20:13;;;;;;;2.95;0.95;;;13.40;99.90;;;;;;5000599;28;20061;-75
2023/10/04 02:22:38;;;;;;;3.88;1.10;;;13.40;99.90;;;;;;5003166;28;20152;-75
2023/10/04 02:25:08;;;;;;;5.45;1.00;;;13.30;99.90;;;;;;5003818;28;20678;-75
2023/10/04 02:27:34;;;;;;;4.00;1.20;;;13.30;99.90;;;;;;5004017;28;20651;-75
2023/10/04 02:30:00;;;;;;;5.18;2.25;;;13.30;99.90;;;;;;5004018;28;20084;-75
2023/10/04 02:32:25;;;;;;;6.80;1.13;;;13.30;99.90;;;;;;5003135;28;20050;-75
2023/10/04 02:34:52;;;;;;;10.02;1.50;;;13.30;99.90;;;;;;5001966;28;20096;-74
2023/10/04 02:37:19;;;;;;;3.72;1.10;;;13.30;99.90;;;;;;5002475;28;20072;-75
2023/10/04 02:39:45;;;;;;;5.07;1.33;;;13.30;99.90;;;;;;5004306;28;20104;-75
2023/10/04 02:42:10;;;;;;;3.63;1.85;;;13.30;99.90;;;;;;5002628;28;20053;-75
2023/10/04 02:44:36;;;;;;;3.28;0.80;;;13.30;99.90;;;;;;5003691;28;20050;-74
2023/10/04 02:47:06;;;;;;;3.42;0.93;;;13.30;99.90;;;;;;5000092;28;20037;-75
2023/10/04 02:49:38;;;;;;;5.60;1.33;;;13.30;99.90;;;;;;4993727;28;20125;-75
2023/10/04 02:52:07;;;;;;;5.13;1.27;;;13.30;99.90;;;;;;5002535;28;20042;-75
2023/10/04 02:54:33;;;;;;;8.18;1.48;;;13.30;99.90;;;;;;4986254;28;20169;-75
2023/10/04 02:57:00;;;;;;;1.00;0.80;;;13.30;99.90;;;;;;5003614;28;20104;-75
2023/10/04 02:59:27;;;;;;;1.23;0.85;;;13.40;99.90;;;;;;4995667;28;20578;-75
2023/10/04 03:01:53;;;;;;;3.13;1.33;;;13.40;99.90;;;;;;4970784;28;20518;-75
2023/10/04 03:04:22;;;;;;;7.60;1.10;;;13.40;99.90;;;;;;5001158;28;20113;-76
2023/10/04 03:06:48;;;;;;;9.90;1.08;;;13.40;99.90;;;;;;4999066;28;20113;-75
2023/10/04 03:09:14;;;;;;;5.50;1.80;;;13.40;99.90;;;;;;5002080;28;20046;-75
2023/10/04 03:11:42;;;;;;;6.50;1.73;;;13.40;99.90;;;;;;4999393;28;20054;-75
2023/10/04 03:14:08;;;;;;;6.13;1.40;;;13.40;99.90;;;;;;4982814;28;20054;-75
2023/10/04 03:16:36;;;;;;;5.18;1.98;;;13.40;99.90;;;;;;4986646;28;20119;-75
2023/10/04 03:19:04;;;;;;;2.42;0.80;;;13.40;99.90;;;;;;4994725;28;20101;-75
2023/10/04 03:21:31;;;;;;;6.32;1.50;;;13.30;99.90;;;;;;4992791;28;20058;-75
2023/10/04 03:24:03;;;;;;;5.70;1.73;;;13.40;99.90;;;;;;5001341;28;20050;-75
2023/10/04 03:26:29;;;;;;;3.70;1.02;;;13.40;99.90;;;;;;5001948;28;20062;-75
2023/10/04 03:28:54;;;;;;;5.13;0.98;;;13.40;99.90;;;;;;4984681;28;20534;-75
2023/10/04 03:31:20;;;;;;;2.20;1.13;;;13.40;99.90;;;;;;4998737;28;20400;-75
2023/10/04 03:33:48;;;;;;;4.07;1.40;;;13.40;99.90;;;;;;4981808;28;20038;-75
2023/10/04 03:36:21;;;;;;;4.38;1.30;;;13.40;99.90;;;;;;4982345;28;20389;-75
2023/10/04 03:38:49;;;;;;;5.22;1.60;;;13.40;99.90;;;;;;4998570;28;20049;-75
2023/10/04 03:41:16;;;;;;;3.80;1.15;;;13.40;99.90;;;;;;5002474;28;20046;-75
2023/10/04 03:43:42;;;;;;;3.40;1.10;;;13.40;99.90;;;;;;4985032;28;20033;-75
2023/10/04 03:46:18;;;;;;;5.05;1.77;;;13.40;99.90;;;;;;4985579;28;20349;-75
2023/10/04 03:48:48;;;;;;;5.20;1.13;;;13.40;99.90;;;;;;4981831;28;20044;-75
2023/10/04 03:51:19;;;;;;;1.30;1.00;;;13.40;99.90;;;;;;4992038;28;20254;-75
2023/10/04 03:53:46;;;;;;;5.20;1.13;;;13.40;99.90;;;;;;4981885;28;20038;-74
2023/10/04 03:56:17;;;;;;;6.72;1.95;;;13.40;99.90;;;;;;4993468;28;20180;-75
2023/10/04 03:58:43;;;;;;;3.47;1.77;;;13.40;99.90;;;;;;4999888;28;20046;-75
2023/10/04 04:01:10;;;;;;;3.78;1.48;;;13.40;99.90;;;;;;5001139;28;20121;-76
2023/10/04 04:03:36;;;;;;;4.40;1.17;;;13.40;99.90;;;;;;5000209;28;20046;-75
2023/10/04 04:06:03;;;;;;;4.00;1.27;;;13.40;99.90;;;;;;5000611;28;20072;-75
2023/10/04 04:08:29;;;;;;;3.95;1.25;;;13.40;99.90;;;;;;4992800;28;20034;-75
2023/10/04 04:10:55;;;;;;;8.18;1.52;;;13.40;99.90;;;;;;4974763;28;20062;-76
2023/10/04 04:13:20;;;;;;;4.07;2.05;;;13.40;99.90;;;;;;4989190;28;20054;-76
2023/10/04 04:15:47;;;;;;;10.07;2.10;;;13.40;99.90;;;;;;4985725;28;20121;-76
2023/10/04 04:18:19;;;;;;;6.82;1.60;;;13.30;99.90;;;;;;4984178;28;20077;-75
2023/10/04 04:20:46;;;;;;;2.95;1.25;;;13.30;99.90;;;;;;4997765;28;20119;-75
2023/10/04 04:23:13;;;;;;;7.43;1.48;;;13.30;99.90;;;;;;4981135;28;20326;-75
2023/10/04 04:25:40;;;;;;;2.67;1.02;;;13.30;99.90;;;;;;4989412;28;20421;-76
2023/10/04 04:28:07;;;;;;;2.42;1.15;;;13.30;99.90;;;;;;4999561;28;20129;-75
2023/10/04 04:30:35;;;;;;;4.75;0.88;;;13.30;99.90;;;;;;4984496;28;20456;-74
2023/10/04 04:33:04;;;;;;;3.28;1.17;;;13.20;99.90;;;;;;5001727;28;20266;-75
2023/10/04 04:38:17;;;;;;;4.45;2.05;;;13.20;99.90;;;;;;4988781;28;20108;-75
2023/10/04 04:40:48;;;;;;;6.70;1.63;;;13.20;99.90;;;;;;4999101;28;20064;-75
2023/10/04 04:43:18;;;;;;;4.35;1.55;;;13.20;99.90;;;;;;5000047;28;20054;-75
2023/10/04 04:45:51;;;;;;;8.45;2.15;;;13.20;99.90;;;;;;5002127;28;20073;-75
2023/10/04 04:48:24;;;;;;;4.82;1.52;;;13.20;99.90;;;;;;4980365;28;20053;-75
2023/10/04 04:51:04;;;;;;;3.53;0.82;;;13.10;99.90;;;;;;5000186;28;20270;-75
2023/10/04 04:53:32;;;;;;;2.47;1.30;;;13.10;99.90;;;;;;4999754;28;20112;-75
2023/10/04 04:56:00;;;;;;;4.28;1.13;;;13.10;99.90;;;;;;5000656;28;20058;-75
2023/10/04 04:58:26;;;;;;;4.78;1.23;;;13.10;99.90;;;;;;4998829;28;20050;-75
2023/10/04 05:01:00;;;;;;;3.47;1.33;;;13.10;99.90;;;;;;5000208;28;20073;-75
2023/10/04 05:03:26;;;;;;;4.40;2.15;;;13.10;99.90;;;;;;4998998;28;20507;-75
2023/10/04 05:05:55;;;;;;;6.07;2.22;;;13.10;99.90;;;;;;5002430;28;20048;-75
2023/10/04 05:08:22;;;;;;;10.35;1.80;;;13.10;99.90;;;;;;4990504;28;20037;-76
2023/10/04 05:10:49;;;;;;;3.60;1.48;;;13.10;99.90;;;;;;4991477;28;20050;-75
2023/10/04 05:13:18;;;;;;;4.38;1.88;;;13.10;99.90;;;;;;4989903;28;20535;-75
2023/10/04 05:15:45;;;;;;;6.72;1.98;;;13.10;99.90;;;;;;4996053;28;20038;-75
2023/10/04 05:18:14;;;;;;;4.88;1.45;;;13.10;99.90;;;;;;4996208;28;20037;-74
2023/10/04 05:20:41;;;;;;;5.35;1.95;;;13.10;99.90;;;;;;4992199;28;20034;-74
2023/10/04 05:23:09;;;;;;;3.85;2.03;;;13.10;99.90;;;;;;4998725;28;20499;-73
2023/10/04 05:25:35;;;;;;;11.65;2.40;;;13.10;99.90;;;;;;4996156;28;20555;-75
2023/10/04 05:28:04;;;;;;;7.40;2.20;;;13.10;99.90;;;;;;4996988;28;20511;-73
2023/10/04 05:30:31;;;;;;;3.33;1.67;;;13.10;99.90;;;;;;4993879;28;20404;-74
2023/10/04 05:32:59;;;;;;;6.53;2.05;;;13.10;99.90;;;;;;4978613;28;20046;-74
2023/10/04 05:35:26;;;;;;;5.93;1.77;;;13.00;99.90;;;;;;4996196;28;20053;-74
2023/10/04 05:37:51;;;;;;;3.42;1.50;;;13.00;99.90;;;;;;4991046;28;20129;-74
2023/10/04 05:40:25;;;;;;;6.68;1.98;;;13.00;99.90;;;;;;4996953;28;20110;-74
2023/10/04 05:42:54;;;;;;;3.78;1.52;;;13.00;99.90;;;;;;5008606;28;20511;-74
2023/10/04 05:45:25;;;;;;;11.30;1.70;;;13.00;99.90;;;;;;5009487;28;20458;-74
2023/10/04 05:47:51;;;;;;;5.03;1.80;;;13.00;99.90;;;;;;4994613;28;20537;-74
2023/10/04 05:50:18;;;;;;;3.70;1.35;;;12.90;99.90;;;;;;4990933;28;20057;-75
2023/10/04 05:52:50;;;;;;;4.55;1.27;;;12.90;99.90;;;;;;4999346;28;20060;-76
2023/10/04 05:55:17;;;;;;;4.75;1.73;;;12.90;99.90;;;;;;4989557;28;20104;-75
2023/10/04 05:57:46;;;;;;;3.15;1.60;;;12.90;99.90;;;;;;4999603;28;20050;-75
2023/10/04 06:00:33;;;;;;;4.07;1.63;;;12.80;99.90;;;;;;4999252;28;20132;-74
2023/10/04 06:03:06;;;;;;;3.22;1.80;;;12.90;99.90;;;;;;4997440;28;20062;-73
2023/10/04 06:05:37;;;;;;;3.42;1.20;;;12.80;99.90;;;;;;4986748;28;20039;-75
2023/10/04 06:08:11;;;;;;;3.60;2.17;;;12.80;99.90;;;;;;4979958;28;20058;-72
2023/10/04 06:10:37;;;;;;;3.17;1.00;;;12.80;99.90;;;;;;5014352;28;20046;-73
2023/10/04 06:13:07;;;;;;;3.47;1.45;;;12.80;99.90;;;;;;4993094;28;20234;-74
2023/10/04 06:15:33;;;;;;;4.55;1.83;;;12.80;99.90;;;;;;4990621;28;20356;-74
2023/10/04 06:18:00;;;;;;;3.40;1.85;;;12.80;99.90;;;;;;4998433;28;20050;-74
2023/10/04 06:20:32;;;;;;;4.70;1.52;;;12.80;99.90;;;;;;4970575;28;20556;-74
2023/10/04 06:23:06;;;;;;;6.30;1.65;;;12.80;99.90;;;;;;4996432;28;20128;-74
2023/10/04 06:25:33;;;;;;;2.92;1.83;;;12.80;99.90;;;;;;4986674;28;20042;-74
2023/10/04 06:28:01;;;;;;;4.10;1.52;;;12.80;99.90;;;;;;5004812;28;20175;-74
2023/10/04 06:30:28;;;;;;;5.18;1.50;;;12.70;99.90;;;;;;5002991;28;20034;-74
2023/10/04 06:32:59;;;;;;;3.22;1.27;;;12.80;99.90;;;;;;5003421;28;20042;-74
2023/10/04 06:35:26;;;;;;;2.33;1.40;;;12.80;99.90;;;;;;5002846;28;20057;-73
2023/10/04 06:38:01;;;;;;;10.07;1.77;;;12.80;99.90;;;;;;4987158;28;20042;-74
2023/10/04 06:40:30;;;;;;;4.63;1.85;;;12.80;99.90;;;;;;5002268;28;20053;-74
2023/10/04 06:42:55;;;;;;;5.88;1.73;;;12.80;99.90;;;;;;5003293;28;20392;-74
2023/10/04 06:45:26;;;;;;;8.10;3.28;;;12.80;99.90;;;;;;4986623;28;20045;-74
2023/10/04 06:47:55;;;;;;;5.35;1.88;;;12.80;99.90;;;;;;5001766;28;20076;-74
2023/10/04 06:50:28;;;;;;;6.95;2.63;;;12.80;99.90;;;;;;5002570;28;20176;-74
2023/10/04 06:52:54;;;;;;;6.43;2.33;;;12.80;99.90;;;;;;5002881;28;20120;-74
2023/10/04 06:55:20;;;;;;;6.10;1.35;;;12.80;99.90;;;;;;5002141;28;20068;-74
2023/10/04 06:57:47;;;;;;;6.60;1.80;;;12.90;99.90;;;;;;5001976;28;20532;-74
2023/10/04 07:00:18;;;;;;;12.88;2.63;;;12.90;99.90;;;;;;5004493;28;20034;-74
2023/10/04 07:02:44;;;;;;;4.88;2.45;;;12.90;99.90;;;;;;5001970;28;20061;-74
2023/10/04 07:05:16;;;;;;;8.05;1.73;;;12.90;99.90;;;;;;5002571;28;20427;-74
2023/10/04 07:07:43;;;;;;;13.45;2.08;;;12.90;99.90;;;;;;4972790;28;20164;-74
2023/10/04 07:10:09;;;;;;;20.80;2.20;;;13.00;99.90;;;;;;4966617;28;20334;-74
2023/10/04 07:12:35;;;;;;;7.80;1.42;;;13.00;99.90;;;;;;4983397;28;20524;-74
2023/10/04 07:15:04;;;;;;;3.58;1.35;;;13.00;99.90;;;;;;4983996;28;20054;-74
2023/10/04 07:17:30;;;;;;;4.78;1.58;;;13.10;99.90;;;;;;4982978;28;20423;-74
2023/10/04 07:19:59;;;;;;;6.95;2.30;;;13.10;99.90;;;;;;4983964;28;20555;-74
2023/10/04 07:22:29;;;;;;;6.95;2.47;;;13.20;99.90;;;;;;4965721;28;20070;-74
2023/10/04 07:24:59;;;;;;;5.30;1.67;;;13.20;99.90;;;;;;4984015;28;20049;-74
2023/10/04 07:27:26;;;;;;;4.75;1.95;;;13.30;99.90;;;;;;4982419;28;20137;-74
2023/10/04 07:29:52;;;;;;;2.30;1.48;;;13.30;99.90;;;;;;4983792;28;20062;-74
2023/10/04 07:32:19;;;;;;;6.53;1.75;;;13.30;99.90;;;;;;4983636;28;20515;-74
2023/10/04 07:34:44;;;;;;;5.57;3.00;;;13.40;99.90;;;;;;4981507;28;20104;-74
2023/10/04 07:37:10;;;;;;;7.32;2.22;;;13.40;99.90;;;;;;4981591;28;20042;-74
2023/10/04 07:39:36;;;;;;;8.20;2.65;;;13.40;99.90;;;;;;4982836;28;20046;-74
2023/10/04 07:42:02;;;;;;;7.85;1.60;;;13.50;99.90;;;;;;4983811;28;20042;-74
2023/10/04 07:44:31;;;;;;;5.40;2.30;;;13.60;99.90;;;;;;4983456;28;20046;-74
2023/10/04 07:47:00;;;;;;;7.97;2.38;;;13.60;99.90;;;;;;4982350;28;20042;-74
2023/10/04 07:49:29;;;;;;;9.48;1.98;;;13.70;99.90;;;;;;4981099;28;20128;-74
2023/10/04 07:51:55;;;;;;;7.25;2.65;;;13.80;99.90;;;;;;4982332;28;20519;-74
2023/10/04 07:54:21;;;;;;;4.90;1.70;;;13.90;99.90;;;;;;4981734;28;20042;-74
2023/10/04 07:56:48;;;;;;;6.03;1.83;;;13.90;99.90;;;;;;4965887;28;20065;-74
2023/10/04 07:59:15;;;;;;;2.95;1.40;;;14.00;99.90;;;;;;4983196;28;20046;-74
2023/10/04 08:01:40;;;;;;;6.57;1.65;;;14.00;99.90;;;;;;4982117;28;20054;-74
2023/10/04 08:04:09;;;;;;;8.63;2.42;;;14.10;99.90;;;;;;4981132;28;20042;-74
2023/10/04 08:06:35;;;;;;;3.75;1.58;;;14.10;99.90;;;;;;4982321;28;20046;-74
2023/10/04 08:09:04;;;;;;;9.68;2.90;;;14.20;99.90;;;;;;4980547;28;20532;-74
2023/10/04 08:11:33;;;;;;;6.97;3.08;;;14.20;99.90;;;;;;4981619;28;20054;-74
2023/10/04 08:13:59;;;;;;;10.27;2.25;;;14.30;99.90;;;;;;4965425;28;20058;-74
2023/10/04 08:16:24;;;;;;;12.65;1.95;;;14.30;99.90;;;;;;4981591;28;20080;-74
2023/10/04 08:18:50;;;;;;;6.25;2.35;;;14.30;99.90;;;;;;4963869;28;20105;-74
2023/10/04 08:21:16;;;;;;;6.82;1.48;;;14.40;99.90;;;;;;4982208;28;20054;-74
2023/10/04 08:23:41;;;;;;;4.78;2.17;;;14.40;99.90;;;;;;4981317;28;20046;-74
2023/10/04 08:26:15;;;;;;;8.38;2.85;;;14.50;99.90;;;;;;4981715;28;20050;-74
2023/10/04 08:28:42;;;;;;;8.80;2.08;;;14.50;99.90;;;;;;4965337;28;20046;-74
2023/10/04 08:31:14;;;;;;;9.82;2.03;;;14.50;99.90;;;;;;4983405;28;20042;-74
2023/10/04 08:33:39;;;;;;;;;;;14.60;99.90;;;;;;4981070;28;20053;-75
2023/10/04 08:36:10;;;;;;;6.38;1.85;;;14.60;99.90;;;;;;4981757;28;19922;-74
2023/10/04 08:38:37;;;;;;;3.95;2.35;;;14.60;99.90;;;;;;4981149;28;20053;-74
2023/10/04 08:41:04;;;;;;;6.50;2.20;;;14.70;99.90;;;;;;4983143;28;20086;-74
2023/10/04 08:43:31;;;;;;;5.93;2.05;;;14.70;99.90;;;;;;4982205;28;20562;-74
2023/10/04 08:45:57;;;;;;;14.75;1.65;;;14.70;99.90;;;;;;4980892;28;20429;-74
2023/10/04 08:48:25;;;;;;;7.32;1.42;;;14.70;99.90;;;;;;4980072;28;20042;-74
2023/10/04 08:50:54;;;;;;;5.25;1.90;;;14.80;99.90;;;;;;4981113;28;20133;-74
2023/10/04 08:53:44;;;;;;;5.18;2.60;;;14.80;99.90;;;;;;4980737;28;20671;-74
2023/10/04 08:56:12;;;;;;;6.15;1.80;;;14.80;99.90;;;;;;4980765;28;20088;-74
2023/10/04 08:58:43;;;;;;;6.07;1.40;;;14.80;99.90;;;;;;4980961;28;20042;-74
2023/10/04 09:01:11;;;;;;;4.30;1.95;;;14.80;99.90;;;;;;4981017;28;20065;-75
2023/10/04 09:03:40;;;;;;;10.77;1.90;;;14.90;99.90;;;;;;4981952;28;20042;-74
2023/10/04 09:06:10;;;;;;;4.53;1.52;;;14.90;99.90;;;;;;4981403;28;20185;-74
2023/10/04 09:08:38;;;;;;;8.20;2.33;;;14.90;99.90;;;;;;4982936;28;20448;-74
2023/10/04 09:11:10;;;;;;;6.38;2.15;;;14.80;99.90;;;;;;4980711;28;20129;-74
2023/10/04 09:13:48;;;;;;;7.13;1.75;;;14.80;99.90;;;;;;4981185;28;20054;-74
2023/10/04 09:16:28;;;;;;;8.00;2.22;;;14.80;99.90;;;;;;4981911;28;20370;-74
2023/10/04 09:19:17;;;;;;;4.00;1.98;;;14.80;99.90;;;;;;4979719;28;20450;-74
2023/10/04 09:21:50;;;;;;;5.95;2.40;;;14.80;99.90;;;;;;4980891;28;20053;-74
2023/10/04 09:24:16;;;;;;;3.40;1.52;;;14.80;99.90;;;;;;4963910;28;20059;-74
2023/10/04 09:26:53;;;;;;;8.52;2.03;;;14.80;99.90;;;;;;4982131;28;20403;-74
2023/10/04 09:29:32;;;;;;;5.95;2.42;;;14.90;99.90;;;;;;4981676;28;20436;-74
2023/10/04 09:31:59;;;;;;;6.55;1.65;;;14.90;99.90;;;;;;4981689;28;20535;-74
2023/10/04 09:34:25;;;;;;;3.88;1.90;;;15.00;99.90;;;;;;4985207;28;20042;-74
2023/10/04 09:36:52;;;;;;;5.55;1.63;;;15.00;99.90;;;;;;4990861;28;20034;-74
2023/10/04 09:39:23;;;;;;;11.98;2.97;;;15.10;99.90;;;;;;5000614;28;20045;-74
2023/10/04 09:41:50;;;;;;;7.32;2.22;;;15.10;99.90;;;;;;5000478;28;20037;-73
2023/10/04 09:44:27;;;;;;;6.75;1.80;;;15.20;99.90;;;;;;4996089;28;20532;-73
2023/10/04 09:46:56;;;;;;;8.48;1.90;;;15.20;99.90;;;;;;4999511;28;20034;-73
2023/10/04 09:49:25;;;;;;;4.65;1.73;;;15.30;99.90;;;;;;4986043;28;20065;-73
2023/10/04 09:51:53;;;;;;;5.50;1.73;;;15.30;99.90;;;;;;4981559;28;20054;-74
2023/10/04 09:54:20;;;;;;;14.52;3.05;;;15.40;99.90;;;;;;4994153;28;20078;-74
2023/10/04 09:56:47;;;;;;;6.10;1.73;;;15.40;99.90;;;;;;4983145;28;20057;-73
2023/10/04 09:59:19;;;;;;;5.80;1.80;;;15.40;99.90;;;;;;4982584;28;20057;-74
2023/10/04 10:01:48;;;;;;;10.05;3.13;;;15.40;99.90;;;;;;4996082;28;20139;-74
2023/10/04 10:04:18;;;;;;;5.32;1.63;;;15.40;99.90;;;;;;4998474;28;20401;-74
2023/10/04 10:07:15;;;;;;;6.95;1.83;;;15.50;99.90;;;;;;4983574;28;20297;-74
2023/10/04 10:10:04;;;;;;;4.55;1.73;;;15.50;99.90;;;;;;4984504;28;20073;-75
2023/10/04 10:12:31;;;;;;;8.35;1.88;;;15.50;99.90;;;;;;4983171;28;20107;-73
2023/10/04 10:15:02;;;;;;;4.50;1.98;;;15.60;99.90;;;;;;5000101;28;20455;-73
2023/10/04 10:17:30;;;;;;;8.23;2.42;;;15.60;99.90;;;;;;4991455;28;20104;-73
2023/10/04 10:19:59;;;;;;;9.38;3.13;;;15.60;99.90;;;;;;4980180;28;20038;-73
2023/10/04 10:22:25;;;;;;;6.45;2.03;;;15.60;99.90;;;;;;4999797;28;20046;-73
2023/10/04 10:24:56;;;;;;;7.22;2.47;;;15.70;99.90;;;;;;4984092;28;20400;-74
2023/10/04 10:27:27;;;;;;;8.73;2.20;;;15.70;99.90;;;;;;4985316;28;20105;-74
2023/10/04 10:29:53;;;;;;;4.47;2.45;;;15.80;99.90;;;;;;4981058;28;20054;-74
2023/10/04 10:32:23;;;;;;;5.55;2.00;;;15.70;99.90;;;;;;4992806;28;20038;-73
2023/10/04 10:34:51;;;;;;;3.03;1.60;;;15.80;99.90;;;;;;4986649;28;20124;-73
2023/10/04 10:37:19;;;;;;;6.95;1.85;;;15.80;99.90;;;;;;4983828;28;20085;-73
2023/10/04 10:39:46;;;;;;;8.68;1.98;;;15.80;99.90;;;;;;4987902;28;20070;-73
2023/10/04 10:42:13;;;;;;;4.78;2.38;;;15.80;99.90;;;;;;5002588;28;20048;-73
2023/10/04 10:44:40;;;;;;;7.38;2.13;;;15.80;99.90;;;;;;5005233;28;20060;-75
2023/10/04 10:47:14;;;;;;;2.80;1.60;;;15.80;99.90;;;;;;4991950;28;20551;-75
2023/10/04 10:49:52;;;;;;;3.80;1.58;;;15.80;99.90;;;;;;5003417;28;20057;-74
2023/10/04 10:52:33;;;;;;;5.53;1.40;;;15.90;99.90;;;;;;4990410;28;20057;-74
2023/10/04 10:55:05;;;;;;;5.77;1.97;;;15.90;99.90;;;;;;5008211;28;20053;-72
2023/10/04 10:57:32;;;;;;;5.47;1.80;;;15.80;99.90;;;;;;5001065;28;20239;-72
2023/10/04 11:00:11;;;;;;;8.27;2.08;;;15.90;99.90;;;;;;4990019;28;20061;-72
2023/10/04 11:02:37;;;;;;;6.13;1.98;;;15.90;99.90;;;;;;5002135;28;20113;-73
2023/10/04 11:05:06;;;;;;;4.25;2.03;;;15.90;99.90;;;;;;4998630;28;20133;-74
2023/10/04 11:07:32;;;;;;;7.53;1.98;;;15.90;99.90;;;;;;4989124;28;20054;-73
2023/10/04 11:09:58;;;;;;;4.05;1.98;;;15.90;99.90;;;;;;4994548;28;20097;-73
2023/10/04 11:12:24;;;;;;;4.15;1.70;;;15.90;99.90;;;;;;4997815;28;20279;-73
2023/10/04 11:14:51;;;;;;;4.20;2.05;;;15.90;99.90;;;;;;5001615;28;20077;-73
2023/10/04 11:17:20;;;;;;;6.07;1.90;;;15.90;99.90;;;;;;5000997;28;20042;-73
2023/10/04 11:19:46;;;;;;;7.18;1.83;;;16.00;99.90;;;;;;5001463;28;20480;-72
2023/10/04 11:22:14;;;;;;;5.78;1.38;;;16.00;99.90;;;;;;4995578;28;20038;-73
2023/10/04 11:24:40;;;;;;;5.63;1.40;;;16.00;99.90;;;;;;5001275;28;20260;-74
2023/10/04 11:27:09;;;;;;;8.00;2.13;;;16.10;99.90;;;;;;5003022;28;20042;-74
2023/10/04 11:29:35;;;;;;;3.55;1.48;;;16.10;99.90;;;;;;5002774;28;20141;-73
2023/10/04 11:32:01;;;;;;;5.43;1.15;;;16.10;99.90;;;;;;4997150;28;20045;-73
2023/10/04 11:34:28;;;;;;;7.72;1.70;;;16.10;99.90;;;;;;5000138;28;20038;-73
2023/10/04 11:37:00;;;;;;;5.57;1.63;;;16.10;99.90;;;;;;4980283;28;20096;-72
2023/10/04 11:39:33;;;;;;;;;;;16.10;99.90;;;;;;4996676;28;20030;-73
2023/10/04 11:42:02;;;;;;;;;;;16.10;99.90;;;;;;4984528;28;19961;-74
2023/10/04 11:44:29;;;;;;;5.30;1.17;;;16.10;99.90;;;;;;5000924;28;20221;-72
2023/10/04 11:47:03;;;;;;;5.15;1.60;;;16.20;99.90;;;;;;4996400;28;20038;-71
2023/10/04 11:49:32;;;;;;;3.47;1.10;;;16.20;99.90;;;;;;4973968;28;20087;-72
2023/10/04 11:52:00;;;;;;;5.38;1.38;;;16.20;99.90;;;;;;4998573;28;20092;-72
2023/10/04 11:54:40;;;;;;;4.00;1.70;;;16.20;99.90;;;;;;4989199;28;20046;-72
2023/10/04 11:57:06;;;;;;;3.88;1.00;;;16.20;99.90;;;;;;4992225;28;20054;-72
2023/10/04 11:59:32;;;;;;;5.22;1.30;;;16.20;99.90;;;;;;4993339;28;20042;-72
2023/10/04 12:01:59;;;;;;;2.83;1.35;;;16.20;99.90;;;;;;4994202;28;20042;-73
2023/10/04 12:04:25;;;;;;;6.22;1.60;;;16.30;99.90;;;;;;5002669;28;20048;-73
2023/10/04 12:07:09;;;;;;;3.80;1.75;;;16.30;99.90;;;;;;4996038;28;20129;-72
2023/10/04 12:09:35;;;;;;;2.55;1.40;;;16.30;99.90;;;;;;5003027;28;20034;-72
2023/10/04 12:12:03;;;;;;;3.25;1.60;;;16.30;99.90;;;;;;5004150;28;20442;-72
2023/10/04 12:14:31;;;;;;;2.80;1.60;;;16.30;99.90;;;;;;5003418;28;20302;-73
2023/10/04 12:16:59;;;;;;;1.52;1.10;;;16.40;99.90;;;;;;4997840;28;20103;-72
2023/10/04 12:19:25;;;;;;;5.50;1.00;;;16.40;99.90;;;;;;4992485;28;20136;-72
2023/10/04 12:21:50;;;;;;;2.63;1.38;;;16.40;99.90;;;;;;4980745;28;20597;-73
2023/10/04 12:24:16;;;;;;;4.50;1.48;;;16.40;99.90;;;;;;4987165;28;20125;-72
2023/10/04 12:26:42;;;;;;;4.80;1.45;;;16.40;99.90;;;;;;5004333;28;20408;-72
2023/10/04 12:29:07;;;;;;;7.82;1.92;;;16.40;99.90;;;;;;5002175;28;20478;-71
2023/10/04 12:31:34;;;;;;;3.35;1.10;;;16.40;99.90;;;;;;4995099;28;20456;-74
2023/10/04 12:34:00;;;;;;;4.00;1.27;;;16.40;99.90;;;;;;4980818;28;20635;-72
2023/10/04 12:36:25;;;;;;;2.00;1.25;;;16.40;99.90;;;;;;4982762;28;20142;-72
2023/10/04 12:38:51;;;;;;;4.85;1.17;;;16.50;99.90;;;;;;4982675;28;20096;-71
2023/10/04 12:41:18;;;;;;;3.95;1.30;;;16.50;99.90;;;;;;4983215;28;20046;-72
2023/10/04 12:43:44;;;;;;;3.47;1.25;;;16.50;99.90;;;;;;4982674;28;20100;-72
2023/10/04 12:46:10;;;;;;;6.40;1.52;;;16.50;99.90;;;;;;4993630;28;20423;-72
2023/10/04 12:48:36;;;;;;;1.65;0.98;;;16.60;99.90;;;;;;5000793;28;20057;-72
2023/10/04 12:51:02;;;;;;;1.88;1.00;;;16.60;99.90;;;;;;5000819;28;20038;-73
2023/10/04 12:53:27;;;;;;;5.32;1.92;;;16.60;99.90;;;;;;5001427;28;20447;-72
2023/10/04 12:55:54;;;;;;;11.65;1.70;;;16.60;99.90;;;;;;5000883;28;20030;-72
2023/10/04 12:58:20;;;;;;;6.88;1.17;;;16.60;99.90;;;;;;5000110;28;20057;-72